CFC8 weather

Flamboro Centre Airport
Flamborough, Ontario, Canada

Public forecast

Using degrees Celsius for public forecast. Weather courtesy of forecast.io.

METAR (pilot weather report)

Closest report is John C. Munro Hamilton International Airport, 11.9 nm (22.0 km) S. Retrieved 2018/11/12 19:00 UTC (28 minutes ago):

CYHM 121900Z 22007KT 15SM BKN033 OVC100 05/M01 A3025 RMK SC7AC1 SLP254

TAF (pilot weather forecast)

Closest forecast is John C. Munro Hamilton International Airport, 11.9 nm (22.0 km) S. Retrieved 2018/11/12 18:45 UTC (43 minutes ago):

TAF TAF CYHM 121741Z 1218/1318 21005KT P6SM BKN030 OVC140 TEMPO 1218/1303 P6SM -RA BKN020 OVC100 FM130300 VRB03KT 6SM -RASN SCT007 OVC030 TEMPO 1303/1305 11/2SM -SNRA BR BKN007 OVC020 FM130500 VRB03KT 11/2SM -SNRA BR BKN005 OVC020 FM130800 VRB03KT 21/2SM -SN BR BKN004 OVC012 FM131400 27006KT 5SM -SHSN BR BKN006 OVC020 FM131700 02008KT 6SM -SHSN BKN020 OVC040 PROB30 1317/1318 2SM -SHSN RMK NXT FCST BY 130000Z